Airfield :
LOGIN :

Register | Disclaimer

   EN    FR    IT 

 










Legend :    VFR   Marginal VFR   IFR   Intensive IFR   Very Intensive IFR
Visi :
Ceiling :
>= 8 km
>= 3000ft
5 to 8 km
1000 to 3000 ft
1500m to 5 km
500 to 1000 ft
800 to 1500m
200 to 500 ft
< 800m
< 200 ft
Symbols :   Thunderstorms  Fog  Heavy snow  Heavy precipitations  Wind > 20 kt
SIGMETs :     Misc.  Thunderstorms  Icing  Turbulence  Mountain Waves  Volcanic Ashes






- Airport Elevation : 529 ft
- IATA code : CHR


LFLX - Chateauroux

CURRENT METAR :
  • 160500Z AUTO 18010KT CAVOK 12/10 Q1013 BECMG 24010KT

EXPIRED METARs :
  • 160430Z AUTO 18009KT CAVOK 12/11 Q1013 BECMG 24010KT
  • 160400Z AUTO 18009KT CAVOK 12/11 Q1013 BECMG 24010KT
  • 160330Z AUTO 18007KT 9999 FEW028 BKN190 12/11 Q1013 BECMG 24010KT
  • 160300Z AUTO 19008KT CAVOK 12/11 Q1014 NOSIG
  • 160230Z AUTO 19009KT CAVOK 12/11 Q1014 NOSIG

TAF TAF LFLX
Valid from the 16 at 00:00 until the 17 at 06:00 UTC


152300Z 1600/1706 24010KT CAVOK
TEMPO 1609/1615 21010G20KT
TEMPO 1611/1621 -RA BKN035
TEMPO 1703/1706 4000 -RA BKN012



MET'MAP, your aeronautical weather chart ! - Copyright ORBIFLY December 2007 - Disclaimer

ORBIFLY MET'MAP TEAM :

Programming & Development : Alexandra Zaïnal
Concept & Development : Baudouin d'Aumeries
Co-Development & Prog : Marc-Olivier Méhu
Technical & hardware support : Manuel Goepfert

Contact : metmap@orbifly.com




SOURCES & CREDITS :

   NOAA